Lawrenceville, GA

09:22 PM EDT on aprilie 20, 2015 (GMT -0400)
Gloster | | Change Station
CLOSE
Current Station
Staţie meteo personală
Location: Lawrenceville, GA
Elevation: 997 ft
Nearby Weather Stations

Elev 997 ft 33.92 °N, 84.07 °W | Updated 2 minutes ago

Cer senin
Cer senin
64.8 °F
Feels Like 64.8 °F
N
2.7
Vânt variabil Vânt from VNV

astăzi
High -- | Low -- °F
--% Chance of Precip.
Ieri
High -- | Low -- °F
Precip. -- inch
6:59 AM 8:11 PM
Semilună în creştere, 7% visible
Presiunea 29.76 inch
Vizibilitatea 10.0 mile
Nori Cer senin
Punctul de rouă 28 °F
Umiditatea 25%
Precipitaţii 0.00 inch
Adâncimea zăpezii Not available.
UV 0 out of 12
Pollen 10.30 out of 12
Calitatea aerului Not available.
Flu Activity Sporadic
METAR KPDK 210053Z 29008KT 10SM CLR 18/10 A2978 RMK AO2 SLP076 T01830100

More Conditions Fewer Conditions

Presiunea 29.76 inch
Vizibilitatea 10.0 mile
Nori Cer senin
Punctul de rouă 28 °F
Umiditatea 25%
Precipitaţii 0.00 inch
Adâncimea zăpezii Not available.
UV 0 out of 12
Pollen 10.30 out of 12
Calitatea aerului Not available.
Flu Activity Sporadic
METAR KPDK 210053Z 29008KT 10SM CLR 18/10 A2978 RMK AO2 SLP076 T01830100

More Conditions Fewer Conditions

The Storm Prediction Center has issued an enhanced risk of severe weather for parts of the Mid-Atlantic and Northeast, including Washington, D.C. Isolated tornadoes cannot be ruled out, but the biggest threat will come from strong thunderstorms producing strong winds and large hail. Tornado Watches are also posted for parts of Georgia, South Carolina, and North Carolina.

10-Day Weather Forecast

Almanac

Astronomie

Apr. 20, 2015 Răsărit Apus
Timpul Actual
Crepusculul Civil
Crepusculul nautic
Răsărit Astronomic
Luna
Durata zilei lumină
Lungimea zilei
Tomorrow will be .
, % of the Moon is Illuminated

Extremele de azi

State Highs State Lows

Community

WunderPhotos

Upload Photos

1,815,274 photos uploaded!

WunderBlogs® & News

Nearby

Calitatea aerului

  Calitatea aerului Index de calitate a aerului Poluat
Not available.

Adâncimea zapezii

Station Depth Elevation

Earthquake Activity

Oraş Distance Mag. Time & Date
Minimum magnitude displayed is 2.5.

Coastal Water Temperatures

Locul Temperatura

Stations

Nearby Weather Stations

Locaţia staţiei Temp Vânt rece Punctul de rouă Umiditatea Vânt Precip. Elev Actualizare Type